sensor_id;sensor_type;location;lat;lon;timestamp;P1;durP1;ratioP1;P2;durP2;ratioP2
53036;SDS011;38924;52.134;4.666;2023-08-20T00:00:55;9.38;;;4.80;;
53036;SDS011;38924;52.134;4.666;2023-08-20T00:03:21;10.80;;;5.28;;
53036;SDS011;38924;52.134;4.666;2023-08-20T00:05:46;12.00;;;5.88;;
53036;SDS011;38924;52.134;4.666;2023-08-20T00:08:12;14.32;;;7.07;;
53036;SDS011;38924;52.134;4.666;2023-08-20T00:10:38;11.55;;;6.47;;
53036;SDS011;38924;52.134;4.666;2023-08-20T00:13:04;11.68;;;5.95;;
53036;SDS011;38924;52.134;4.666;2023-08-20T00:15:30;8.55;;;6.00;;
53036;SDS011;38924;52.134;4.666;2023-08-20T00:17:55;8.65;;;4.80;;
53036;SDS011;38924;52.134;4.666;2023-08-20T00:20:21;10.20;;;5.63;;
53036;SDS011;38924;52.134;4.666;2023-08-20T00:22:47;8.63;;;6.30;;
53036;SDS011;38924;52.134;4.666;2023-08-20T00:25:13;10.80;;;6.05;;
53036;SDS011;38924;52.134;4.666;2023-08-20T00:27:40;17.60;;;8.00;;
53036;SDS011;38924;52.134;4.666;2023-08-20T00:30:06;13.85;;;6.55;;
53036;SDS011;38924;52.134;4.666;2023-08-20T00:32:32;18.10;;;6.57;;
53036;SDS011;38924;52.134;4.666;2023-08-20T00:34:57;17.20;;;7.22;;
53036;SDS011;38924;52.134;4.666;2023-08-20T00:37:23;17.50;;;8.55;;
53036;SDS011;38924;52.134;4.666;2023-08-20T00:39:49;10.27;;;5.88;;
53036;SDS011;38924;52.134;4.666;2023-08-20T00:42:15;11.30;;;7.13;;
53036;SDS011;38924;52.134;4.666;2023-08-20T00:44:40;9.57;;;6.25;;
53036;SDS011;38924;52.134;4.666;2023-08-20T00:47:12;10.65;;;6.20;;
53036;SDS011;38924;52.134;4.666;2023-08-20T00:49:39;15.02;;;6.22;;
53036;SDS011;38924;52.134;4.666;2023-08-20T00:52:05;13.45;;;7.10;;
53036;SDS011;38924;52.134;4.666;2023-08-20T00:54:31;13.80;;;7.55;;
53036;SDS011;38924;52.134;4.666;2023-08-20T00:56:58;9.98;;;6.80;;
53036;SDS011;38924;52.134;4.666;2023-08-20T00:59:24;15.65;;;7.75;;
53036;SDS011;38924;52.134;4.666;2023-08-20T01:01:50;18.52;;;6.20;;
53036;SDS011;38924;52.134;4.666;2023-08-20T01:04:16;15.45;;;7.45;;
53036;SDS011;38924;52.134;4.666;2023-08-20T01:09:40;18.05;;;7.35;;
53036;SDS011;38924;52.134;4.666;2023-08-20T01:12:08;11.50;;;6.00;;
53036;SDS011;38924;52.134;4.666;2023-08-20T01:14:35;8.27;;;5.85;;
53036;SDS011;38924;52.134;4.666;2023-08-20T01:17:01;12.30;;;7.40;;
53036;SDS011;38924;52.134;4.666;2023-08-20T01:19:27;9.43;;;6.72;;
53036;SDS011;38924;52.134;4.666;2023-08-20T01:21:59;13.43;;;7.82;;
53036;SDS011;38924;52.134;4.666;2023-08-20T01:26:56;12.57;;;6.68;;
53036;SDS011;38924;52.134;4.666;2023-08-20T01:29:26;14.48;;;6.15;;
53036;SDS011;38924;52.134;4.666;2023-08-20T01:31:53;13.02;;;5.95;;
53036;SDS011;38924;52.134;4.666;2023-08-20T01:34:18;15.48;;;6.10;;
53036;SDS011;38924;52.134;4.666;2023-08-20T01:36:44;17.38;;;8.27;;
53036;SDS011;38924;52.134;4.666;2023-08-20T01:39:10;15.18;;;6.72;;
53036;SDS011;38924;52.134;4.666;2023-08-20T01:41:35;12.88;;;6.10;;
53036;SDS011;38924;52.134;4.666;2023-08-20T01:44:01;16.17;;;6.40;;
53036;SDS011;38924;52.134;4.666;2023-08-20T01:46:27;10.02;;;6.07;;
53036;SDS011;38924;52.134;4.666;2023-08-20T01:48:55;14.52;;;6.57;;
53036;SDS011;38924;52.134;4.666;2023-08-20T01:51:21;10.32;;;6.28;;
53036;SDS011;38924;52.134;4.666;2023-08-20T01:53:47;23.42;;;8.52;;
53036;SDS011;38924;52.134;4.666;2023-08-20T01:56:13;11.95;;;5.70;;
53036;SDS011;38924;52.134;4.666;2023-08-20T01:58:40;12.90;;;5.65;;
53036;SDS011;38924;52.134;4.666;2023-08-20T02:01:06;14.00;;;6.25;;
53036;SDS011;38924;52.134;4.666;2023-08-20T02:03:31;12.40;;;5.32;;
53036;SDS011;38924;52.134;4.666;2023-08-20T02:05:57;16.95;;;5.35;;
53036;SDS011;38924;52.134;4.666;2023-08-20T02:08:23;8.77;;;4.63;;
53036;SDS011;38924;52.134;4.666;2023-08-20T02:10:49;13.25;;;5.25;;
53036;SDS011;38924;52.134;4.666;2023-08-20T02:13:17;14.50;;;4.38;;
53036;SDS011;38924;52.134;4.666;2023-08-20T02:15:56;14.18;;;5.15;;
53036;SDS011;38924;52.134;4.666;2023-08-20T02:18:22;12.35;;;5.40;;
53036;SDS011;38924;52.134;4.666;2023-08-20T02:20:48;12.27;;;5.40;;
53036;SDS011;38924;52.134;4.666;2023-08-20T02:23:13;16.55;;;5.78;;
53036;SDS011;38924;52.134;4.666;2023-08-20T02:25:39;11.38;;;5.85;;
53036;SDS011;38924;52.134;4.666;2023-08-20T02:28:05;11.25;;;5.95;;
53036;SDS011;38924;52.134;4.666;2023-08-20T02:30:39;13.45;;;5.78;;
53036;SDS011;38924;52.134;4.666;2023-08-20T02:33:05;19.80;;;6.57;;
53036;SDS011;38924;52.134;4.666;2023-08-20T02:35:33;10.63;;;5.20;;
53036;SDS011;38924;52.134;4.666;2023-08-20T02:38:03;12.43;;;6.38;;
53036;SDS011;38924;52.134;4.666;2023-08-20T02:40:29;12.18;;;6.82;;
53036;SDS011;38924;52.134;4.666;2023-08-20T02:42:57;15.45;;;6.40;;
53036;SDS011;38924;52.134;4.666;2023-08-20T02:45:23;14.25;;;6.43;;
53036;SDS011;38924;52.134;4.666;2023-08-20T02:47:53;13.52;;;6.20;;
53036;SDS011;38924;52.134;4.666;2023-08-20T02:50:19;18.05;;;7.75;;
53036;SDS011;38924;52.134;4.666;2023-08-20T02:52:45;13.60;;;5.57;;
53036;SDS011;38924;52.134;4.666;2023-08-20T02:55:10;14.10;;;6.80;;
53036;SDS011;38924;52.134;4.666;2023-08-20T02:57:36;20.80;;;7.82;;
53036;SDS011;38924;52.134;4.666;2023-08-20T03:00:02;11.45;;;7.10;;
53036;SDS011;38924;52.134;4.666;2023-08-20T03:02:28;7.97;;;5.47;;
53036;SDS011;38924;52.134;4.666;2023-08-20T03:04:54;11.00;;;5.80;;
53036;SDS011;38924;52.134;4.666;2023-08-20T03:07:21;11.07;;;6.28;;
53036;SDS011;38924;52.134;4.666;2023-08-20T03:09:48;13.45;;;7.60;;
53036;SDS011;38924;52.134;4.666;2023-08-20T03:12:13;18.52;;;6.85;;
53036;SDS011;38924;52.134;4.666;2023-08-20T03:14:39;13.65;;;6.47;;
53036;SDS011;38924;52.134;4.666;2023-08-20T03:17:05;8.07;;;6.03;;
53036;SDS011;38924;52.134;4.666;2023-08-20T03:19:32;11.80;;;6.03;;
53036;SDS011;38924;52.134;4.666;2023-08-20T03:21:58;16.25;;;5.82;;
53036;SDS011;38924;52.134;4.666;2023-08-20T03:24:24;14.30;;;6.93;;
53036;SDS011;38924;52.134;4.666;2023-08-20T03:26:49;15.85;;;6.93;;
53036;SDS011;38924;52.134;4.666;2023-08-20T03:29:15;11.23;;;6.53;;
53036;SDS011;38924;52.134;4.666;2023-08-20T03:31:41;13.60;;;6.28;;
53036;SDS011;38924;52.134;4.666;2023-08-20T03:34:06;14.23;;;5.28;;
53036;SDS011;38924;52.134;4.666;2023-08-20T03:36:35;15.30;;;5.88;;
53036;SDS011;38924;52.134;4.666;2023-08-20T03:39:04;7.72;;;6.25;;
53036;SDS011;38924;52.134;4.666;2023-08-20T03:41:30;14.55;;;6.97;;
53036;SDS011;38924;52.134;4.666;2023-08-20T03:43:55;14.20;;;5.78;;
53036;SDS011;38924;52.134;4.666;2023-08-20T03:46:21;11.45;;;6.60;;
53036;SDS011;38924;52.134;4.666;2023-08-20T03:48:47;13.30;;;6.22;;
53036;SDS011;38924;52.134;4.666;2023-08-20T03:51:13;9.77;;;6.43;;
53036;SDS011;38924;52.134;4.666;2023-08-20T03:53:38;11.07;;;6.38;;
53036;SDS011;38924;52.134;4.666;2023-08-20T03:56:04;14.27;;;6.10;;
53036;SDS011;38924;52.134;4.666;2023-08-20T03:58:31;13.88;;;6.53;;
53036;SDS011;38924;52.134;4.666;2023-08-20T04:01:03;15.00;;;6.53;;
53036;SDS011;38924;52.134;4.666;2023-08-20T04:03:29;12.68;;;5.10;;
53036;SDS011;38924;52.134;4.666;2023-08-20T04:05:58;11.02;;;5.57;;
53036;SDS011;38924;52.134;4.666;2023-08-20T04:08:24;16.45;;;6.05;;
53036;SDS011;38924;52.134;4.666;2023-08-20T04:10:51;14.93;;;5.50;;
53036;SDS011;38924;52.134;4.666;2023-08-20T04:13:17;15.30;;;7.00;;
53036;SDS011;38924;52.134;4.666;2023-08-20T04:15:45;12.10;;;6.13;;
53036;SDS011;38924;52.134;4.666;2023-08-20T04:18:11;12.50;;;4.75;;
53036;SDS011;38924;52.134;4.666;2023-08-20T04:20:36;11.15;;;5.47;;
53036;SDS011;38924;52.134;4.666;2023-08-20T04:23:02;10.65;;;5.88;;
53036;SDS011;38924;52.134;4.666;2023-08-20T04:25:28;12.73;;;6.07;;
53036;SDS011;38924;52.134;4.666;2023-08-20T04:27:54;11.80;;;5.22;;
53036;SDS011;38924;52.134;4.666;2023-08-20T04:30:20;11.80;;;5.50;;
53036;SDS011;38924;52.134;4.666;2023-08-20T04:32:46;19.60;;;6.20;;
53036;SDS011;38924;52.134;4.666;2023-08-20T04:35:12;11.10;;;5.47;;
53036;SDS011;38924;52.134;4.666;2023-08-20T04:37:39;17.40;;;5.65;;
53036;SDS011;38924;52.134;4.666;2023-08-20T04:40:07;15.30;;;5.63;;
53036;SDS011;38924;52.134;4.666;2023-08-20T04:42:33;14.40;;;5.95;;
53036;SDS011;38924;52.134;4.666;2023-08-20T04:44:59;22.27;;;6.15;;
53036;SDS011;38924;52.134;4.666;2023-08-20T04:47:26;12.18;;;4.78;;
53036;SDS011;38924;52.134;4.666;2023-08-20T04:49:53;10.93;;;5.60;;
53036;SDS011;38924;52.134;4.666;2023-08-20T04:52:19;17.58;;;5.65;;
53036;SDS011;38924;52.134;4.666;2023-08-20T04:54:46;15.35;;;6.13;;
53036;SDS011;38924;52.134;4.666;2023-08-20T04:57:12;15.73;;;5.85;;
53036;SDS011;38924;52.134;4.666;2023-08-20T04:59:38;11.10;;;5.47;;
53036;SDS011;38924;52.134;4.666;2023-08-20T05:02:27;11.82;;;6.05;;
53036;SDS011;38924;52.134;4.666;2023-08-20T05:04:58;19.15;;;5.80;;
53036;SDS011;38924;52.134;4.666;2023-08-20T05:07:27;12.90;;;5.50;;
53036;SDS011;38924;52.134;4.666;2023-08-20T05:09:53;13.80;;;5.32;;
53036;SDS011;38924;52.134;4.666;2023-08-20T05:12:22;14.98;;;5.35;;
53036;SDS011;38924;52.134;4.666;2023-08-20T05:14:48;19.63;;;5.68;;
53036;SDS011;38924;52.134;4.666;2023-08-20T05:17:14;11.90;;;5.55;;
53036;SDS011;38924;52.134;4.666;2023-08-20T05:19:40;13.77;;;5.38;;
53036;SDS011;38924;52.134;4.666;2023-08-20T05:22:06;15.32;;;5.78;;
53036;SDS011;38924;52.134;4.666;2023-08-20T05:24:34;15.48;;;5.85;;
53036;SDS011;38924;52.134;4.666;2023-08-20T05:27:06;10.52;;;4.93;;
53036;SDS011;38924;52.134;4.666;2023-08-20T05:29:32;13.77;;;6.65;;
53036;SDS011;38924;52.134;4.666;2023-08-20T05:31:58;11.85;;;5.78;;
53036;SDS011;38924;52.134;4.666;2023-08-20T05:34:24;13.55;;;6.53;;
53036;SDS011;38924;52.134;4.666;2023-08-20T05:36:51;15.98;;;5.90;;
53036;SDS011;38924;52.134;4.666;2023-08-20T05:39:17;14.35;;;6.55;;
53036;SDS011;38924;52.134;4.666;2023-08-20T05:41:43;14.93;;;6.47;;
53036;SDS011;38924;52.134;4.666;2023-08-20T05:44:09;13.65;;;6.93;;
53036;SDS011;38924;52.134;4.666;2023-08-20T05:46:35;13.95;;;5.88;;
53036;SDS011;38924;52.134;4.666;2023-08-20T05:49:01;12.55;;;6.50;;
53036;SDS011;38924;52.134;4.666;2023-08-20T05:51:31;12.80;;;8.20;;
53036;SDS011;38924;52.134;4.666;2023-08-20T05:53:56;18.02;;;7.90;;
53036;SDS011;38924;52.134;4.666;2023-08-20T05:56:22;11.23;;;6.70;;
53036;SDS011;38924;52.134;4.666;2023-08-20T05:58:48;17.90;;;8.15;;
53036;SDS011;38924;52.134;4.666;2023-08-20T06:01:14;13.80;;;7.25;;
53036;SDS011;38924;52.134;4.666;2023-08-20T06:03:40;13.93;;;7.65;;
53036;SDS011;38924;52.134;4.666;2023-08-20T06:06:06;19.40;;;8.40;;
53036;SDS011;38924;52.134;4.666;2023-08-20T06:08:31;14.75;;;8.32;;
53036;SDS011;38924;52.134;4.666;2023-08-20T06:10:57;14.20;;;5.93;;
53036;SDS011;38924;52.134;4.666;2023-08-20T06:13:23;14.57;;;6.20;;
53036;SDS011;38924;52.134;4.666;2023-08-20T06:15:49;9.63;;;5.90;;
53036;SDS011;38924;52.134;4.666;2023-08-20T06:18:14;16.52;;;5.78;;
53036;SDS011;38924;52.134;4.666;2023-08-20T06:20:40;13.00;;;9.57;;
53036;SDS011;38924;52.134;4.666;2023-08-20T06:23:06;19.58;;;9.00;;
53036;SDS011;38924;52.134;4.666;2023-08-20T06:25:32;14.73;;;8.50;;
53036;SDS011;38924;52.134;4.666;2023-08-20T06:27:57;9.32;;;4.65;;
53036;SDS011;38924;52.134;4.666;2023-08-20T06:30:23;16.23;;;10.10;;
53036;SDS011;38924;52.134;4.666;2023-08-20T06:32:49;13.90;;;9.50;;
53036;SDS011;38924;52.134;4.666;2023-08-20T06:35:14;17.30;;;10.55;;
53036;SDS011;38924;52.134;4.666;2023-08-20T06:37:40;13.15;;;6.90;;
53036;SDS011;38924;52.134;4.666;2023-08-20T06:40:06;12.57;;;8.00;;
53036;SDS011;38924;52.134;4.666;2023-08-20T06:42:32;13.18;;;8.70;;
53036;SDS011;38924;52.134;4.666;2023-08-20T06:44:58;15.63;;;11.77;;
53036;SDS011;38924;52.134;4.666;2023-08-20T06:47:23;18.02;;;13.38;;
53036;SDS011;38924;52.134;4.666;2023-08-20T06:49:49;13.90;;;9.88;;
53036;SDS011;38924;52.134;4.666;2023-08-20T06:52:15;15.93;;;10.77;;
53036;SDS011;38924;52.134;4.666;2023-08-20T06:54:41;13.43;;;12.05;;
53036;SDS011;38924;52.134;4.666;2023-08-20T06:57:09;17.10;;;11.75;;
53036;SDS011;38924;52.134;4.666;2023-08-20T06:59:35;12.63;;;8.40;;
53036;SDS011;38924;52.134;4.666;2023-08-20T07:02:03;15.52;;;8.70;;
53036;SDS011;38924;52.134;4.666;2023-08-20T07:04:29;11.80;;;9.35;;
53036;SDS011;38924;52.134;4.666;2023-08-20T07:06:55;15.45;;;10.40;;
53036;SDS011;38924;52.134;4.666;2023-08-20T07:09:21;16.33;;;9.45;;
53036;SDS011;38924;52.134;4.666;2023-08-20T07:11:46;12.23;;;9.68;;
53036;SDS011;38924;52.134;4.666;2023-08-20T07:14:12;17.15;;;9.77;;
53036;SDS011;38924;52.134;4.666;2023-08-20T07:16:38;16.55;;;10.82;;
53036;SDS011;38924;52.134;4.666;2023-08-20T07:19:03;15.00;;;10.75;;
53036;SDS011;38924;52.134;4.666;2023-08-20T07:21:29;12.25;;;9.50;;
53036;SDS011;38924;52.134;4.666;2023-08-20T07:23:55;11.23;;;9.23;;
53036;SDS011;38924;52.134;4.666;2023-08-20T07:26:21;11.90;;;10.18;;
53036;SDS011;38924;52.134;4.666;2023-08-20T07:28:48;13.15;;;10.45;;
53036;SDS011;38924;52.134;4.666;2023-08-20T07:31:26;13.15;;;9.30;;
53036;SDS011;38924;52.134;4.666;2023-08-20T07:33:52;15.52;;;9.68;;
53036;SDS011;38924;52.134;4.666;2023-08-20T07:36:19;12.07;;;8.05;;
53036;SDS011;38924;52.134;4.666;2023-08-20T07:38:45;13.27;;;8.73;;
53036;SDS011;38924;52.134;4.666;2023-08-20T07:41:10;11.73;;;9.52;;
53036;SDS011;38924;52.134;4.666;2023-08-20T07:43:39;14.30;;;10.43;;
53036;SDS011;38924;52.134;4.666;2023-08-20T07:46:06;11.50;;;9.32;;
53036;SDS011;38924;52.134;4.666;2023-08-20T07:48:32;12.23;;;9.57;;
53036;SDS011;38924;52.134;4.666;2023-08-20T07:50:59;14.73;;;11.32;;
53036;SDS011;38924;52.134;4.666;2023-08-20T07:53:24;12.40;;;9.65;;
53036;SDS011;38924;52.134;4.666;2023-08-20T07:55:50;11.85;;;9.30;;
53036;SDS011;38924;52.134;4.666;2023-08-20T07:58:16;14.38;;;8.70;;
53036;SDS011;38924;52.134;4.666;2023-08-20T08:00:42;11.85;;;8.85;;
53036;SDS011;38924;52.134;4.666;2023-08-20T08:03:08;14.27;;;11.10;;
53036;SDS011;38924;52.134;4.666;2023-08-20T08:05:35;18.48;;;12.05;;
53036;SDS011;38924;52.134;4.666;2023-08-20T08:08:01;11.48;;;10.30;;
53036;SDS011;38924;52.134;4.666;2023-08-20T08:10:26;16.13;;;12.00;;
53036;SDS011;38924;52.134;4.666;2023-08-20T08:12:53;13.68;;;12.20;;
53036;SDS011;38924;52.134;4.666;2023-08-20T08:15:19;13.48;;;9.70;;
53036;SDS011;38924;52.134;4.666;2023-08-20T08:17:45;21.20;;;12.55;;
53036;SDS011;38924;52.134;4.666;2023-08-20T08:20:13;16.95;;;12.15;;
53036;SDS011;38924;52.134;4.666;2023-08-20T08:22:39;15.32;;;13.75;;
53036;SDS011;38924;52.134;4.666;2023-08-20T08:25:05;15.13;;;13.77;;
53036;SDS011;38924;52.134;4.666;2023-08-20T08:27:31;12.20;;;9.30;;
53036;SDS011;38924;52.134;4.666;2023-08-20T08:29:56;15.13;;;13.65;;
53036;SDS011;38924;52.134;4.666;2023-08-20T08:32:22;17.35;;;13.07;;
53036;SDS011;38924;52.134;4.666;2023-08-20T08:34:47;14.15;;;12.57;;
53036;SDS011;38924;52.134;4.666;2023-08-20T08:37:13;13.98;;;12.35;;
53036;SDS011;38924;52.134;4.666;2023-08-20T08:39:40;13.57;;;12.32;;
53036;SDS011;38924;52.134;4.666;2023-08-20T08:42:06;17.98;;;16.27;;
53036;SDS011;38924;52.134;4.666;2023-08-20T08:44:33;16.27;;;14.32;;
53036;SDS011;38924;52.134;4.666;2023-08-20T08:47:02;15.32;;;13.93;;
53036;SDS011;38924;52.134;4.666;2023-08-20T08:49:28;16.83;;;15.35;;
53036;SDS011;38924;52.134;4.666;2023-08-20T08:51:56;17.35;;;13.05;;
53036;SDS011;38924;52.134;4.666;2023-08-20T08:54:22;25.30;;;15.55;;
53036;SDS011;38924;52.134;4.666;2023-08-20T08:56:48;16.27;;;14.65;;
53036;SDS011;38924;52.134;4.666;2023-08-20T08:59:14;16.70;;;15.10;;
53036;SDS011;38924;52.134;4.666;2023-08-20T09:01:40;14.07;;;12.32;;
53036;SDS011;38924;52.134;4.666;2023-08-20T09:04:06;11.05;;;9.73;;
53036;SDS011;38924;52.134;4.666;2023-08-20T09:06:51;14.70;;;13.32;;
53036;SDS011;38924;52.134;4.666;2023-08-20T09:09:17;17.50;;;15.80;;
53036;SDS011;38924;52.134;4.666;2023-08-20T09:11:43;15.63;;;14.15;;
53036;SDS011;38924;52.134;4.666;2023-08-20T09:14:30;16.13;;;14.73;;
53036;SDS011;38924;52.134;4.666;2023-08-20T09:17:01;17.25;;;15.50;;
53036;SDS011;38924;52.134;4.666;2023-08-20T09:19:28;19.73;;;13.65;;
53036;SDS011;38924;52.134;4.666;2023-08-20T09:21:53;15.50;;;14.23;;
53036;SDS011;38924;52.134;4.666;2023-08-20T09:24:38;19.02;;;17.23;;
53036;SDS011;38924;52.134;4.666;2023-08-20T09:27:04;19.38;;;17.58;;
53036;SDS011;38924;52.134;4.666;2023-08-20T09:29:33;17.15;;;15.68;;
53036;SDS011;38924;52.134;4.666;2023-08-20T09:32:00;15.40;;;13.88;;
53036;SDS011;38924;52.134;4.666;2023-08-20T09:34:35;20.95;;;18.80;;
53036;SDS011;38924;52.134;4.666;2023-08-20T09:37:02;17.13;;;15.63;;
53036;SDS011;38924;52.134;4.666;2023-08-20T09:39:27;18.45;;;16.73;;
53036;SDS011;38924;52.134;4.666;2023-08-20T09:41:53;20.77;;;18.85;;
53036;SDS011;38924;52.134;4.666;2023-08-20T09:44:20;20.27;;;18.58;;
53036;SDS011;38924;52.134;4.666;2023-08-20T09:46:47;24.52;;;22.45;;
53036;SDS011;38924;52.134;4.666;2023-08-20T09:49:13;20.98;;;19.20;;
53036;SDS011;38924;52.134;4.666;2023-08-20T09:51:42;21.10;;;19.20;;
53036;SDS011;38924;52.134;4.666;2023-08-20T09:56:39;21.88;;;20.13;;
53036;SDS011;38924;52.134;4.666;2023-08-20T09:59:08;22.90;;;20.80;;
53036;SDS011;38924;52.134;4.666;2023-08-20T10:01:36;19.90;;;18.27;;
53036;SDS011;38924;52.134;4.666;2023-08-20T10:04:02;18.33;;;16.80;;
53036;SDS011;38924;52.134;4.666;2023-08-20T10:06:28;21.95;;;20.08;;
53036;SDS011;38924;52.134;4.666;2023-08-20T10:08:54;19.88;;;18.38;;
53036;SDS011;38924;52.134;4.666;2023-08-20T10:11:23;19.98;;;18.17;;
53036;SDS011;38924;52.134;4.666;2023-08-20T10:13:55;22.20;;;20.50;;
53036;SDS011;38924;52.134;4.666;2023-08-20T10:16:21;22.88;;;21.08;;
53036;SDS011;38924;52.134;4.666;2023-08-20T10:18:48;19.73;;;18.13;;
53036;SDS011;38924;52.134;4.666;2023-08-20T10:21:14;21.60;;;20.05;;
53036;SDS011;38924;52.134;4.666;2023-08-20T10:23:40;24.20;;;22.08;;
53036;SDS011;38924;52.134;4.666;2023-08-20T10:26:09;19.92;;;18.23;;
53036;SDS011;38924;52.134;4.666;2023-08-20T10:28:35;25.35;;;22.98;;
53036;SDS011;38924;52.134;4.666;2023-08-20T10:31:08;26.15;;;23.95;;
53036;SDS011;38924;52.134;4.666;2023-08-20T10:33:34;21.13;;;19.27;;
53036;SDS011;38924;52.134;4.666;2023-08-20T10:36:19;23.15;;;21.48;;
53036;SDS011;38924;52.134;4.666;2023-08-20T10:38:51;19.27;;;17.60;;
53036;SDS011;38924;52.134;4.666;2023-08-20T10:41:27;22.85;;;21.05;;
53036;SDS011;38924;52.134;4.666;2023-08-20T10:43:59;22.92;;;20.83;;
53036;SDS011;38924;52.134;4.666;2023-08-20T10:46:28;22.65;;;20.85;;
53036;SDS011;38924;52.134;4.666;2023-08-20T10:49:01;23.35;;;21.52;;
53036;SDS011;38924;52.134;4.666;2023-08-20T10:51:27;26.98;;;24.95;;
53036;SDS011;38924;52.134;4.666;2023-08-20T10:56:58;23.38;;;21.33;;
53036;SDS011;38924;52.134;4.666;2023-08-20T10:59:17;22.58;;;20.67;;
53036;SDS011;38924;52.134;4.666;2023-08-20T11:01:47;23.02;;;21.40;;
53036;SDS011;38924;52.134;4.666;2023-08-20T11:04:14;19.77;;;18.05;;
53036;SDS011;38924;52.134;4.666;2023-08-20T11:06:40;26.83;;;24.55;;
53036;SDS011;38924;52.134;4.666;2023-08-20T11:09:06;26.90;;;24.95;;
53036;SDS011;38924;52.134;4.666;2023-08-20T11:11:32;26.73;;;24.73;;
53036;SDS011;38924;52.134;4.666;2023-08-20T11:14:04;24.40;;;22.75;;
53036;SDS011;38924;52.134;4.666;2023-08-20T11:16:30;26.50;;;24.73;;
53036;SDS011;38924;52.134;4.666;2023-08-20T11:18:56;22.77;;;20.88;;
53036;SDS011;38924;52.134;4.666;2023-08-20T11:21:22;23.38;;;21.55;;
53036;SDS011;38924;52.134;4.666;2023-08-20T11:23:48;20.95;;;19.17;;
53036;SDS011;38924;52.134;4.666;2023-08-20T11:26:13;21.98;;;20.15;;
53036;SDS011;38924;52.134;4.666;2023-08-20T11:28:44;23.35;;;21.65;;
53036;SDS011;38924;52.134;4.666;2023-08-20T11:31:10;22.33;;;20.55;;
53036;SDS011;38924;52.134;4.666;2023-08-20T11:33:39;23.92;;;22.08;;
53036;SDS011;38924;52.134;4.666;2023-08-20T11:36:05;25.15;;;23.48;;
53036;SDS011;38924;52.134;4.666;2023-08-20T11:38:31;20.30;;;18.63;;
53036;SDS011;38924;52.134;4.666;2023-08-20T11:40:57;25.38;;;23.70;;
53036;SDS011;38924;52.134;4.666;2023-08-20T11:43:27;24.08;;;22.00;;
53036;SDS011;38924;52.134;4.666;2023-08-20T11:45:52;24.25;;;22.08;;
53036;SDS011;38924;52.134;4.666;2023-08-20T11:48:20;25.88;;;24.02;;
53036;SDS011;38924;52.134;4.666;2023-08-20T11:50:46;32.55;;;29.67;;
53036;SDS011;38924;52.134;4.666;2023-08-20T11:53:12;26.38;;;24.48;;
53036;SDS011;38924;52.134;4.666;2023-08-20T11:55:41;27.00;;;25.20;;
53036;SDS011;38924;52.134;4.666;2023-08-20T11:58:13;22.08;;;20.17;;
53036;SDS011;38924;52.134;4.666;2023-08-20T12:00:39;25.45;;;23.42;;
53036;SDS011;38924;52.134;4.666;2023-08-20T12:03:05;27.67;;;25.73;;
53036;SDS011;38924;52.134;4.666;2023-08-20T12:05:31;24.67;;;22.75;;
53036;SDS011;38924;52.134;4.666;2023-08-20T12:08:00;26.08;;;24.08;;
53036;SDS011;38924;52.134;4.666;2023-08-20T12:10:26;26.65;;;24.40;;
53036;SDS011;38924;52.134;4.666;2023-08-20T12:12:53;27.40;;;25.15;;
53036;SDS011;38924;52.134;4.666;2023-08-20T12:15:19;25.25;;;23.35;;
53036;SDS011;38924;52.134;4.666;2023-08-20T12:18:01;22.50;;;20.85;;
53036;SDS011;38924;52.134;4.666;2023-08-20T12:20:28;25.15;;;23.33;;
53036;SDS011;38924;52.134;4.666;2023-08-20T12:22:57;30.27;;;28.20;;
53036;SDS011;38924;52.134;4.666;2023-08-20T12:25:23;27.50;;;25.52;;
53036;SDS011;38924;52.134;4.666;2023-08-20T12:27:51;22.90;;;21.05;;
53036;SDS011;38924;52.134;4.666;2023-08-20T12:30:18;24.52;;;22.77;;
53036;SDS011;38924;52.134;4.666;2023-08-20T12:32:43;23.80;;;21.85;;
53036;SDS011;38924;52.134;4.666;2023-08-20T12:35:09;27.65;;;25.55;;
53036;SDS011;38924;52.134;4.666;2023-08-20T12:37:35;31.42;;;29.25;;
53036;SDS011;38924;52.134;4.666;2023-08-20T12:40:01;27.70;;;25.50;;
53036;SDS011;38924;52.134;4.666;2023-08-20T12:42:29;29.38;;;27.20;;
53036;SDS011;38924;52.134;4.666;2023-08-20T12:44:55;26.05;;;24.30;;
53036;SDS011;38924;52.134;4.666;2023-08-20T12:47:23;25.13;;;23.35;;
53036;SDS011;38924;52.134;4.666;2023-08-20T12:49:49;25.17;;;23.25;;
53036;SDS011;38924;52.134;4.666;2023-08-20T12:52:14;20.83;;;19.27;;
53036;SDS011;38924;52.134;4.666;2023-08-20T12:54:40;21.48;;;19.45;;
53036;SDS011;38924;52.134;4.666;2023-08-20T12:57:06;21.38;;;19.55;;
53036;SDS011;38924;52.134;4.666;2023-08-20T12:59:32;20.27;;;18.60;;
53036;SDS011;38924;52.134;4.666;2023-08-20T13:01:58;18.25;;;16.80;;
53036;SDS011;38924;52.134;4.666;2023-08-20T13:04:26;23.63;;;21.77;;
53036;SDS011;38924;52.134;4.666;2023-08-20T13:06:52;20.35;;;18.45;;
53036;SDS011;38924;52.134;4.666;2023-08-20T13:09:18;18.55;;;17.35;;
53036;SDS011;38924;52.134;4.666;2023-08-20T13:11:45;20.92;;;19.13;;
53036;SDS011;38924;52.134;4.666;2023-08-20T13:14:18;20.88;;;18.88;;
53036;SDS011;38924;52.134;4.666;2023-08-20T13:16:46;22.33;;;20.50;;
53036;SDS011;38924;52.134;4.666;2023-08-20T13:19:12;22.67;;;20.63;;
53036;SDS011;38924;52.134;4.666;2023-08-20T13:21:38;18.75;;;17.42;;
53036;SDS011;38924;52.134;4.666;2023-08-20T13:24:04;18.55;;;17.23;;
53036;SDS011;38924;52.134;4.666;2023-08-20T13:26:30;21.10;;;19.50;;
53036;SDS011;38924;52.134;4.666;2023-08-20T13:28:55;18.13;;;16.88;;
53036;SDS011;38924;52.134;4.666;2023-08-20T13:31:21;20.42;;;18.92;;
53036;SDS011;38924;52.134;4.666;2023-08-20T13:33:47;23.23;;;21.50;;
53036;SDS011;38924;52.134;4.666;2023-08-20T13:36:13;25.45;;;23.20;;
53036;SDS011;38924;52.134;4.666;2023-08-20T13:38:38;20.60;;;18.95;;
53036;SDS011;38924;52.134;4.666;2023-08-20T13:41:04;23.63;;;21.50;;
53036;SDS011;38924;52.134;4.666;2023-08-20T13:43:30;23.70;;;22.00;;
53036;SDS011;38924;52.134;4.666;2023-08-20T13:45:55;23.67;;;21.25;;
53036;SDS011;38924;52.134;4.666;2023-08-20T13:48:24;23.42;;;21.63;;
53036;SDS011;38924;52.134;4.666;2023-08-20T13:50:49;26.92;;;25.08;;
53036;SDS011;38924;52.134;4.666;2023-08-20T13:53:15;22.33;;;20.52;;
53036;SDS011;38924;52.134;4.666;2023-08-20T13:55:41;17.98;;;16.50;;
53036;SDS011;38924;52.134;4.666;2023-08-20T13:58:06;21.98;;;20.27;;
53036;SDS011;38924;52.134;4.666;2023-08-20T14:00:32;20.92;;;19.15;;
53036;SDS011;38924;52.134;4.666;2023-08-20T14:02:58;21.95;;;20.25;;
53036;SDS011;38924;52.134;4.666;2023-08-20T14:05:24;22.40;;;20.98;;
53036;SDS011;38924;52.134;4.666;2023-08-20T14:07:49;19.27;;;17.45;;
53036;SDS011;38924;52.134;4.666;2023-08-20T14:10:15;22.45;;;20.65;;
53036;SDS011;38924;52.134;4.666;2023-08-20T14:12:43;21.92;;;20.23;;
53036;SDS011;38924;52.134;4.666;2023-08-20T14:15:09;21.15;;;19.45;;
53036;SDS011;38924;52.134;4.666;2023-08-20T14:17:35;19.55;;;17.90;;
53036;SDS011;38924;52.134;4.666;2023-08-20T14:20:01;20.98;;;19.27;;
53036;SDS011;38924;52.134;4.666;2023-08-20T14:22:27;20.27;;;18.83;;
53036;SDS011;38924;52.134;4.666;2023-08-20T14:24:52;19.77;;;18.17;;
53036;SDS011;38924;52.134;4.666;2023-08-20T14:27:18;19.00;;;17.60;;
53036;SDS011;38924;52.134;4.666;2023-08-20T14:29:44;20.65;;;18.85;;
53036;SDS011;38924;52.134;4.666;2023-08-20T14:32:09;17.67;;;16.10;;
53036;SDS011;38924;52.134;4.666;2023-08-20T14:34:35;19.00;;;17.23;;
53036;SDS011;38924;52.134;4.666;2023-08-20T14:37:01;19.00;;;17.60;;